sensor_id;sensor_type;location;lat;lon;timestamp;temperature;humidity
42663;DHT22;44330;51.360;6.686;2023-07-29T00:02:07;18.30;92.30
42663;DHT22;44330;51.360;6.686;2023-07-29T00:04:33;18.30;92.40
42663;DHT22;44330;51.360;6.686;2023-07-29T00:06:58;18.30;92.50
42663;DHT22;44330;51.360;6.686;2023-07-29T00:09:24;18.30;92.60
42663;DHT22;44330;51.360;6.686;2023-07-29T00:11:49;18.30;92.70
42663;DHT22;44330;51.360;6.686;2023-07-29T00:14:15;18.30;92.80
42663;DHT22;44330;51.360;6.686;2023-07-29T00:16:41;18.40;93.00
42663;DHT22;44330;51.360;6.686;2023-07-29T00:19:07;18.40;93.00
42663;DHT22;44330;51.360;6.686;2023-07-29T00:21:33;18.40;93.00
42663;DHT22;44330;51.360;6.686;2023-07-29T00:23:58;18.40;93.10
42663;DHT22;44330;51.360;6.686;2023-07-29T00:26:26;18.40;93.10
42663;DHT22;44330;51.360;6.686;2023-07-29T00:28:57;18.40;93.10
42663;DHT22;44330;51.360;6.686;2023-07-29T00:31:22;18.30;93.10
42663;DHT22;44330;51.360;6.686;2023-07-29T00:33:48;18.30;93.10
42663;DHT22;44330;51.360;6.686;2023-07-29T00:36:14;18.40;93.20
42663;DHT22;44330;51.360;6.686;2023-07-29T00:38:39;18.30;93.20
42663;DHT22;44330;51.360;6.686;2023-07-29T00:41:05;18.40;93.20
42663;DHT22;44330;51.360;6.686;2023-07-29T00:43:30;18.30;93.20
42663;DHT22;44330;51.360;6.686;2023-07-29T00:45:56;18.30;93.30
42663;DHT22;44330;51.360;6.686;2023-07-29T00:48:23;18.30;93.30
42663;DHT22;44330;51.360;6.686;2023-07-29T00:50:49;18.30;93.30
42663;DHT22;44330;51.360;6.686;2023-07-29T00:53:15;18.30;93.40
42663;DHT22;44330;51.360;6.686;2023-07-29T00:55:41;18.30;93.40
42663;DHT22;44330;51.360;6.686;2023-07-29T00:58:07;18.30;93.50
42663;DHT22;44330;51.360;6.686;2023-07-29T01:00:33;18.20;93.50
42663;DHT22;44330;51.360;6.686;2023-07-29T01:02:58;18.40;93.60
42663;DHT22;44330;51.360;6.686;2023-07-29T01:05:36;18.40;93.60
42663;DHT22;44330;51.360;6.686;2023-07-29T01:08:14;18.40;93.70
42663;DHT22;44330;51.360;6.686;2023-07-29T01:11:09;18.50;93.70
42663;DHT22;44330;51.360;6.686;2023-07-29T01:14:19;18.50;93.70
42663;DHT22;44330;51.360;6.686;2023-07-29T01:16:52;18.50;93.70
42663;DHT22;44330;51.360;6.686;2023-07-29T01:22:13;18.50;93.70
42663;DHT22;44330;51.360;6.686;2023-07-29T01:24:39;18.60;93.80
42663;DHT22;44330;51.360;6.686;2023-07-29T01:27:05;18.60;93.80
42663;DHT22;44330;51.360;6.686;2023-07-29T01:29:31;18.50;93.80
42663;DHT22;44330;51.360;6.686;2023-07-29T01:32:01;18.50;93.80
42663;DHT22;44330;51.360;6.686;2023-07-29T01:34:44;18.50;93.80
42663;DHT22;44330;51.360;6.686;2023-07-29T01:37:16;18.60;93.90
42663;DHT22;44330;51.360;6.686;2023-07-29T01:39:45;18.60;93.90
42663;DHT22;44330;51.360;6.686;2023-07-29T01:42:11;18.60;93.90
42663;DHT22;44330;51.360;6.686;2023-07-29T01:44:37;18.60;93.90
42663;DHT22;44330;51.360;6.686;2023-07-29T01:47:03;18.60;93.90
42663;DHT22;44330;51.360;6.686;2023-07-29T01:49:28;18.70;93.90
42663;DHT22;44330;51.360;6.686;2023-07-29T01:51:54;18.50;93.90
42663;DHT22;44330;51.360;6.686;2023-07-29T01:54:19;18.60;93.90
42663;DHT22;44330;51.360;6.686;2023-07-29T01:56:45;18.60;94.00
42663;DHT22;44330;51.360;6.686;2023-07-29T01:59:11;18.60;94.00
42663;DHT22;44330;51.360;6.686;2023-07-29T02:01:36;18.60;94.00
42663;DHT22;44330;51.360;6.686;2023-07-29T02:04:02;18.60;94.00
42663;DHT22;44330;51.360;6.686;2023-07-29T02:06:28;18.60;94.00
42663;DHT22;44330;51.360;6.686;2023-07-29T02:08:54;18.60;94.00
42663;DHT22;44330;51.360;6.686;2023-07-29T02:11:20;18.70;94.20
42663;DHT22;44330;51.360;6.686;2023-07-29T02:13:52;18.70;94.00
42663;DHT22;44330;51.360;6.686;2023-07-29T02:16:18;18.70;94.00
42663;DHT22;44330;51.360;6.686;2023-07-29T02:18:43;18.70;94.00
42663;DHT22;44330;51.360;6.686;2023-07-29T02:21:09;18.70;94.00
42663;DHT22;44330;51.360;6.686;2023-07-29T02:23:34;18.70;94.00
42663;DHT22;44330;51.360;6.686;2023-07-29T02:26:00;18.70;94.00
42663;DHT22;44330;51.360;6.686;2023-07-29T02:28:25;18.70;94.30
42663;DHT22;44330;51.360;6.686;2023-07-29T02:31:14;18.80;94.10
42663;DHT22;44330;51.360;6.686;2023-07-29T02:33:40;18.80;94.10
42663;DHT22;44330;51.360;6.686;2023-07-29T02:36:05;18.80;94.10
42663;DHT22;44330;51.360;6.686;2023-07-29T02:38:31;18.80;94.10
42663;DHT22;44330;51.360;6.686;2023-07-29T02:40:56;18.80;94.10
42663;DHT22;44330;51.360;6.686;2023-07-29T02:43:22;18.90;94.10
42663;DHT22;44330;51.360;6.686;2023-07-29T02:45:47;18.80;94.10
42663;DHT22;44330;51.360;6.686;2023-07-29T02:48:13;18.80;94.10
42663;DHT22;44330;51.360;6.686;2023-07-29T02:50:38;18.80;94.10
42663;DHT22;44330;51.360;6.686;2023-07-29T02:53:04;18.80;94.10
42663;DHT22;44330;51.360;6.686;2023-07-29T02:55:29;18.80;94.10
42663;DHT22;44330;51.360;6.686;2023-07-29T02:57:55;18.80;94.00
42663;DHT22;44330;51.360;6.686;2023-07-29T03:00:20;18.80;94.00
42663;DHT22;44330;51.360;6.686;2023-07-29T03:02:46;18.80;94.00
42663;DHT22;44330;51.360;6.686;2023-07-29T03:05:11;18.80;94.00
42663;DHT22;44330;51.360;6.686;2023-07-29T03:07:37;18.90;94.00
42663;DHT22;44330;51.360;6.686;2023-07-29T03:10:02;19.00;94.00
42663;DHT22;44330;51.360;6.686;2023-07-29T03:12:28;18.90;93.90
42663;DHT22;44330;51.360;6.686;2023-07-29T03:14:53;19.10;93.70
42663;DHT22;44330;51.360;6.686;2023-07-29T03:17:19;19.10;93.30
42663;DHT22;44330;51.360;6.686;2023-07-29T03:19:44;19.10;93.20
42663;DHT22;44330;51.360;6.686;2023-07-29T03:22:10;19.10;93.00
42663;DHT22;44330;51.360;6.686;2023-07-29T03:24:35;19.10;93.00
42663;DHT22;44330;51.360;6.686;2023-07-29T03:27:01;18.90;93.10
42663;DHT22;44330;51.360;6.686;2023-07-29T03:29:26;18.90;93.20
42663;DHT22;44330;51.360;6.686;2023-07-29T03:31:52;18.90;93.40
42663;DHT22;44330;51.360;6.686;2023-07-29T03:34:17;18.80;93.50
42663;DHT22;44330;51.360;6.686;2023-07-29T03:36:43;18.90;93.60
42663;DHT22;44330;51.360;6.686;2023-07-29T03:39:11;18.90;93.60
42663;DHT22;44330;51.360;6.686;2023-07-29T03:41:37;18.80;93.60
42663;DHT22;44330;51.360;6.686;2023-07-29T03:44:02;18.90;93.70
42663;DHT22;44330;51.360;6.686;2023-07-29T03:46:28;18.80;93.70
42663;DHT22;44330;51.360;6.686;2023-07-29T03:48:54;18.80;93.70
42663;DHT22;44330;51.360;6.686;2023-07-29T03:51:19;18.80;93.70
42663;DHT22;44330;51.360;6.686;2023-07-29T03:53:46;18.80;93.70
42663;DHT22;44330;51.360;6.686;2023-07-29T03:56:11;18.80;93.70
42663;DHT22;44330;51.360;6.686;2023-07-29T03:58:37;18.80;93.60
42663;DHT22;44330;51.360;6.686;2023-07-29T04:01:02;18.80;93.60
42663;DHT22;44330;51.360;6.686;2023-07-29T04:03:29;18.80;93.60
42663;DHT22;44330;51.360;6.686;2023-07-29T04:05:55;18.70;93.50
42663;DHT22;44330;51.360;6.686;2023-07-29T04:08:21;18.70;93.50
42663;DHT22;44330;51.360;6.686;2023-07-29T04:10:46;18.70;93.50
42663;DHT22;44330;51.360;6.686;2023-07-29T04:13:12;18.60;93.50
42663;DHT22;44330;51.360;6.686;2023-07-29T04:15:37;18.50;93.50
42663;DHT22;44330;51.360;6.686;2023-07-29T04:18:03;18.50;93.50
42663;DHT22;44330;51.360;6.686;2023-07-29T04:20:29;18.50;93.50
42663;DHT22;44330;51.360;6.686;2023-07-29T04:22:54;18.50;93.40
42663;DHT22;44330;51.360;6.686;2023-07-29T04:25:20;18.50;93.40
42663;DHT22;44330;51.360;6.686;2023-07-29T04:27:45;18.40;93.20
42663;DHT22;44330;51.360;6.686;2023-07-29T04:30:11;18.50;93.20
42663;DHT22;44330;51.360;6.686;2023-07-29T04:32:36;18.50;93.20
42663;DHT22;44330;51.360;6.686;2023-07-29T04:35:02;18.40;93.00
42663;DHT22;44330;51.360;6.686;2023-07-29T04:37:28;18.50;92.90
42663;DHT22;44330;51.360;6.686;2023-07-29T04:39:53;18.50;92.80
42663;DHT22;44330;51.360;6.686;2023-07-29T04:42:19;18.40;92.70
42663;DHT22;44330;51.360;6.686;2023-07-29T04:44:44;18.40;92.60
42663;DHT22;44330;51.360;6.686;2023-07-29T04:47:10;18.50;92.50
42663;DHT22;44330;51.360;6.686;2023-07-29T04:49:35;18.60;92.10
42663;DHT22;44330;51.360;6.686;2023-07-29T04:52:01;18.40;91.80
42663;DHT22;44330;51.360;6.686;2023-07-29T04:54:26;18.40;91.80
42663;DHT22;44330;51.360;6.686;2023-07-29T04:56:52;18.30;91.90
42663;DHT22;44330;51.360;6.686;2023-07-29T04:59:18;18.30;92.00
42663;DHT22;44330;51.360;6.686;2023-07-29T05:01:43;18.20;92.10
42663;DHT22;44330;51.360;6.686;2023-07-29T05:04:09;18.20;92.10
42663;DHT22;44330;51.360;6.686;2023-07-29T05:06:34;18.20;92.10
42663;DHT22;44330;51.360;6.686;2023-07-29T05:09:13;18.20;92.20
42663;DHT22;44330;51.360;6.686;2023-07-29T05:11:38;18.30;92.30
42663;DHT22;44330;51.360;6.686;2023-07-29T05:14:05;18.30;92.20
42663;DHT22;44330;51.360;6.686;2023-07-29T05:16:31;18.30;92.10
42663;DHT22;44330;51.360;6.686;2023-07-29T05:18:57;18.40;92.10
42663;DHT22;44330;51.360;6.686;2023-07-29T05:21:22;18.30;91.30
42663;DHT22;44330;51.360;6.686;2023-07-29T05:23:48;18.30;91.20
42663;DHT22;44330;51.360;6.686;2023-07-29T05:26:13;18.30;91.00
42663;DHT22;44330;51.360;6.686;2023-07-29T05:28:39;18.30;90.40
42663;DHT22;44330;51.360;6.686;2023-07-29T05:31:04;18.30;90.10
42663;DHT22;44330;51.360;6.686;2023-07-29T05:33:30;18.30;90.00
42663;DHT22;44330;51.360;6.686;2023-07-29T05:35:55;18.30;89.50
42663;DHT22;44330;51.360;6.686;2023-07-29T05:38:21;18.30;89.10
42663;DHT22;44330;51.360;6.686;2023-07-29T05:40:48;18.40;88.40
42663;DHT22;44330;51.360;6.686;2023-07-29T05:43:14;18.30;88.00
42663;DHT22;44330;51.360;6.686;2023-07-29T05:45:40;18.20;87.50
42663;DHT22;44330;51.360;6.686;2023-07-29T05:48:06;18.20;87.60
42663;DHT22;44330;51.360;6.686;2023-07-29T05:50:31;18.30;88.40
42663;DHT22;44330;51.360;6.686;2023-07-29T05:52:57;18.20;88.50
42663;DHT22;44330;51.360;6.686;2023-07-29T05:55:22;18.30;89.00
42663;DHT22;44330;51.360;6.686;2023-07-29T05:57:48;18.30;89.40
42663;DHT22;44330;51.360;6.686;2023-07-29T06:00:14;18.30;89.60
42663;DHT22;44330;51.360;6.686;2023-07-29T06:02:40;18.40;88.70
42663;DHT22;44330;51.360;6.686;2023-07-29T06:05:08;18.50;88.00
42663;DHT22;44330;51.360;6.686;2023-07-29T06:07:34;18.40;87.70
42663;DHT22;44330;51.360;6.686;2023-07-29T06:10:00;18.40;86.90
42663;DHT22;44330;51.360;6.686;2023-07-29T06:12:26;18.50;86.70
42663;DHT22;44330;51.360;6.686;2023-07-29T06:14:51;18.50;86.70
42663;DHT22;44330;51.360;6.686;2023-07-29T06:17:17;18.50;82.70
42663;DHT22;44330;51.360;6.686;2023-07-29T06:19:43;18.70;81.20
42663;DHT22;44330;51.360;6.686;2023-07-29T06:22:09;18.70;79.60
42663;DHT22;44330;51.360;6.686;2023-07-29T06:24:35;18.60;78.60
42663;DHT22;44330;51.360;6.686;2023-07-29T06:27:01;18.60;79.30
42663;DHT22;44330;51.360;6.686;2023-07-29T06:29:27;18.50;78.70
42663;DHT22;44330;51.360;6.686;2023-07-29T06:31:52;18.50;79.10
42663;DHT22;44330;51.360;6.686;2023-07-29T06:34:19;18.60;80.00
42663;DHT22;44330;51.360;6.686;2023-07-29T06:36:45;18.70;80.50
42663;DHT22;44330;51.360;6.686;2023-07-29T06:39:11;18.70;79.20
42663;DHT22;44330;51.360;6.686;2023-07-29T06:41:36;18.80;77.60
42663;DHT22;44330;51.360;6.686;2023-07-29T06:44:02;18.90;79.60
42663;DHT22;44330;51.360;6.686;2023-07-29T06:46:28;19.10;73.50
42663;DHT22;44330;51.360;6.686;2023-07-29T06:48:53;19.20;73.50
42663;DHT22;44330;51.360;6.686;2023-07-29T06:51:19;19.30;71.20
42663;DHT22;44330;51.360;6.686;2023-07-29T06:53:45;19.30;67.90
42663;DHT22;44330;51.360;6.686;2023-07-29T06:56:10;19.30;71.90
42663;DHT22;44330;51.360;6.686;2023-07-29T06:58:36;19.40;69.10
42663;DHT22;44330;51.360;6.686;2023-07-29T07:01:01;19.60;64.80
42663;DHT22;44330;51.360;6.686;2023-07-29T07:03:28;19.60;60.90
42663;DHT22;44330;51.360;6.686;2023-07-29T07:05:54;19.70;62.90
42663;DHT22;44330;51.360;6.686;2023-07-29T07:08:19;19.80;58.60
42663;DHT22;44330;51.360;6.686;2023-07-29T07:10:47;19.90;63.90
42663;DHT22;44330;51.360;6.686;2023-07-29T07:13:12;20.00;53.10
42663;DHT22;44330;51.360;6.686;2023-07-29T07:15:38;20.30;52.10
42663;DHT22;44330;51.360;6.686;2023-07-29T07:18:03;20.20;53.20
42663;DHT22;44330;51.360;6.686;2023-07-29T07:20:29;20.40;49.80
42663;DHT22;44330;51.360;6.686;2023-07-29T07:22:54;20.50;46.10
42663;DHT22;44330;51.360;6.686;2023-07-29T07:25:21;20.60;36.10
42663;DHT22;44330;51.360;6.686;2023-07-29T07:27:46;20.70;28.90
42663;DHT22;44330;51.360;6.686;2023-07-29T07:30:12;20.80;30.50
42663;DHT22;44330;51.360;6.686;2023-07-29T07:32:37;21.00;23.60
42663;DHT22;44330;51.360;6.686;2023-07-29T07:35:03;21.00;16.00
42663;DHT22;44330;51.360;6.686;2023-07-29T07:37:29;21.00;16.80
42663;DHT22;44330;51.360;6.686;2023-07-29T07:39:55;20.90;20.90
42663;DHT22;44330;51.360;6.686;2023-07-29T07:42:20;20.80;31.20
42663;DHT22;44330;51.360;6.686;2023-07-29T07:44:46;20.80;26.30
42663;DHT22;44330;51.360;6.686;2023-07-29T07:47:11;20.80;28.80
42663;DHT22;44330;51.360;6.686;2023-07-29T07:49:37;20.90;34.20
42663;DHT22;44330;51.360;6.686;2023-07-29T07:52:03;21.00;26.40
42663;DHT22;44330;51.360;6.686;2023-07-29T07:54:28;21.20;23.50
42663;DHT22;44330;51.360;6.686;2023-07-29T07:56:54;21.30;22.80
42663;DHT22;44330;51.360;6.686;2023-07-29T07:59:19;21.50;30.00
42663;DHT22;44330;51.360;6.686;2023-07-29T08:01:45;21.70;30.90
42663;DHT22;44330;51.360;6.686;2023-07-29T08:04:10;22.00;12.70
42663;DHT22;44330;51.360;6.686;2023-07-29T08:06:36;22.10;6.00
42663;DHT22;44330;51.360;6.686;2023-07-29T08:09:02;22.10;4.30
42663;DHT22;44330;51.360;6.686;2023-07-29T08:11:27;22.20;1.00
42663;DHT22;44330;51.360;6.686;2023-07-29T08:13:53;22.40;1.00
42663;DHT22;44330;51.360;6.686;2023-07-29T08:16:18;22.50;1.00
42663;DHT22;44330;51.360;6.686;2023-07-29T08:18:44;22.60;1.00
42663;DHT22;44330;51.360;6.686;2023-07-29T08:21:09;22.70;1.00
42663;DHT22;44330;51.360;6.686;2023-07-29T08:23:36;22.90;1.00
42663;DHT22;44330;51.360;6.686;2023-07-29T08:26:04;23.10;1.00
42663;DHT22;44330;51.360;6.686;2023-07-29T08:28:35;23.20;1.00
42663;DHT22;44330;51.360;6.686;2023-07-29T08:31:01;23.20;99.90
42663;DHT22;44330;51.360;6.686;2023-07-29T08:33:27;23.30;1.00
42663;DHT22;44330;51.360;6.686;2023-07-29T08:35:53;23.30;1.00
42663;DHT22;44330;51.360;6.686;2023-07-29T08:38:19;23.30;99.90
42663;DHT22;44330;51.360;6.686;2023-07-29T08:43:29;23.40;99.90
42663;DHT22;44330;51.360;6.686;2023-07-29T08:45:57;23.50;99.90
42663;DHT22;44330;51.360;6.686;2023-07-29T08:48:36;23.70;99.90
42663;DHT22;44330;51.360;6.686;2023-07-29T08:51:05;23.80;99.90
42663;DHT22;44330;51.360;6.686;2023-07-29T08:53:31;23.80;99.90
42663;DHT22;44330;51.360;6.686;2023-07-29T08:55:57;23.80;99.90
42663;DHT22;44330;51.360;6.686;2023-07-29T08:58:23;23.70;99.90
42663;DHT22;44330;51.360;6.686;2023-07-29T09:00:50;23.70;99.90
42663;DHT22;44330;51.360;6.686;2023-07-29T09:03:15;23.70;99.90
42663;DHT22;44330;51.360;6.686;2023-07-29T09:05:41;23.60;99.90
42663;DHT22;44330;51.360;6.686;2023-07-29T09:08:07;23.50;99.90
42663;DHT22;44330;51.360;6.686;2023-07-29T09:10:36;23.40;99.90
42663;DHT22;44330;51.360;6.686;2023-07-29T09:13:03;23.40;1.00
42663;DHT22;44330;51.360;6.686;2023-07-29T09:15:29;23.50;1.00
42663;DHT22;44330;51.360;6.686;2023-07-29T09:17:56;23.50;1.00
42663;DHT22;44330;51.360;6.686;2023-07-29T09:20:26;23.40;1.00
42663;DHT22;44330;51.360;6.686;2023-07-29T09:22:54;23.50;1.00
42663;DHT22;44330;51.360;6.686;2023-07-29T09:25:25;23.30;1.00
42663;DHT22;44330;51.360;6.686;2023-07-29T09:27:51;23.20;1.00
42663;DHT22;44330;51.360;6.686;2023-07-29T09:30:17;23.20;1.00
42663;DHT22;44330;51.360;6.686;2023-07-29T09:32:43;23.00;1.00
42663;DHT22;44330;51.360;6.686;2023-07-29T09:35:12;22.90;1.00
42663;DHT22;44330;51.360;6.686;2023-07-29T09:37:38;22.90;1.00
42663;DHT22;44330;51.360;6.686;2023-07-29T09:40:06;22.80;1.00
42663;DHT22;44330;51.360;6.686;2023-07-29T09:42:32;22.70;1.00
42663;DHT22;44330;51.360;6.686;2023-07-29T09:44:58;22.70;1.00
42663;DHT22;44330;51.360;6.686;2023-07-29T09:47:24;22.70;1.00
42663;DHT22;44330;51.360;6.686;2023-07-29T09:49:51;22.70;1.00
42663;DHT22;44330;51.360;6.686;2023-07-29T09:52:18;22.80;1.00
42663;DHT22;44330;51.360;6.686;2023-07-29T09:54:44;22.90;1.00
42663;DHT22;44330;51.360;6.686;2023-07-29T09:57:11;23.20;1.00
42663;DHT22;44330;51.360;6.686;2023-07-29T09:59:39;23.70;1.00
42663;DHT22;44330;51.360;6.686;2023-07-29T10:02:05;24.10;99.90
42663;DHT22;44330;51.360;6.686;2023-07-29T10:04:33;24.40;99.90
42663;DHT22;44330;51.360;6.686;2023-07-29T10:07:00;24.70;99.90
42663;DHT22;44330;51.360;6.686;2023-07-29T10:09:26;25.00;99.90
42663;DHT22;44330;51.360;6.686;2023-07-29T10:11:53;24.90;99.90
42663;DHT22;44330;51.360;6.686;2023-07-29T10:14:20;24.90;99.90
42663;DHT22;44330;51.360;6.686;2023-07-29T10:16:46;24.70;99.90
42663;DHT22;44330;51.360;6.686;2023-07-29T10:19:12;24.50;99.90
42663;DHT22;44330;51.360;6.686;2023-07-29T10:21:41;24.40;99.90
42663;DHT22;44330;51.360;6.686;2023-07-29T10:24:15;24.40;99.90
42663;DHT22;44330;51.360;6.686;2023-07-29T10:26:45;24.20;99.90
42663;DHT22;44330;51.360;6.686;2023-07-29T10:29:12;24.10;99.90
42663;DHT22;44330;51.360;6.686;2023-07-29T10:31:43;23.90;99.90
42663;DHT22;44330;51.360;6.686;2023-07-29T10:34:09;23.90;99.90
42663;DHT22;44330;51.360;6.686;2023-07-29T10:36:36;23.90;99.90
42663;DHT22;44330;51.360;6.686;2023-07-29T10:39:02;23.80;99.90
42663;DHT22;44330;51.360;6.686;2023-07-29T10:42:00;23.80;99.90
42663;DHT22;44330;51.360;6.686;2023-07-29T10:47:27;23.90;99.90
42663;DHT22;44330;51.360;6.686;2023-07-29T10:49:56;24.30;99.90
42663;DHT22;44330;51.360;6.686;2023-07-29T10:55:00;24.80;99.90
42663;DHT22;44330;51.360;6.686;2023-07-29T10:57:34;25.00;1.00
42663;DHT22;44330;51.360;6.686;2023-07-29T11:00:01;25.10;99.90
42663;DHT22;44330;51.360;6.686;2023-07-29T11:02:35;25.20;99.90
42663;DHT22;44330;51.360;6.686;2023-07-29T11:05:16;25.10;20.80
42663;DHT22;44330;51.360;6.686;2023-07-29T11:07:49;24.90;76.50
42663;DHT22;44330;51.360;6.686;2023-07-29T11:10:16;24.70;99.90
42663;DHT22;44330;51.360;6.686;2023-07-29T11:12:43;24.40;99.90
42663;DHT22;44330;51.360;6.686;2023-07-29T11:17:39;24.10;99.90
42663;DHT22;44330;51.360;6.686;2023-07-29T11:20:06;23.90;99.90
42663;DHT22;44330;51.360;6.686;2023-07-29T11:22:35;23.90;99.90
42663;DHT22;44330;51.360;6.686;2023-07-29T11:25:01;23.80;99.90
42663;DHT22;44330;51.360;6.686;2023-07-29T11:27:27;23.80;99.90
42663;DHT22;44330;51.360;6.686;2023-07-29T11:30:00;23.60;99.90
42663;DHT22;44330;51.360;6.686;2023-07-29T11:32:27;23.70;99.90
42663;DHT22;44330;51.360;6.686;2023-07-29T11:34:52;24.10;99.90
42663;DHT22;44330;51.360;6.686;2023-07-29T11:37:18;24.50;1.00
42663;DHT22;44330;51.360;6.686;2023-07-29T11:39:45;24.90;1.00
42663;DHT22;44330;51.360;6.686;2023-07-29T11:42:12;25.10;81.40
42663;DHT22;44330;51.360;6.686;2023-07-29T11:44:38;25.40;92.00
42663;DHT22;44330;51.360;6.686;2023-07-29T11:47:07;25.50;99.90
42663;DHT22;44330;51.360;6.686;2023-07-29T11:49:34;25.60;99.90
42663;DHT22;44330;51.360;6.686;2023-07-29T11:52:00;25.90;99.90
42663;DHT22;44330;51.360;6.686;2023-07-29T11:54:26;25.80;99.90
42663;DHT22;44330;51.360;6.686;2023-07-29T11:56:52;25.80;45.60
42663;DHT22;44330;51.360;6.686;2023-07-29T11:59:17;25.70;99.90
42663;DHT22;44330;51.360;6.686;2023-07-29T12:01:43;25.30;99.90
42663;DHT22;44330;51.360;6.686;2023-07-29T12:04:10;25.30;99.90
42663;DHT22;44330;51.360;6.686;2023-07-29T12:06:36;25.40;99.90
42663;DHT22;44330;51.360;6.686;2023-07-29T12:09:03;25.50;1.00
42663;DHT22;44330;51.360;6.686;2023-07-29T12:11:28;25.70;99.90
42663;DHT22;44330;51.360;6.686;2023-07-29T12:13:54;25.90;1.00
42663;DHT22;44330;51.360;6.686;2023-07-29T12:16:19;26.10;99.90
42663;DHT22;44330;51.360;6.686;2023-07-29T12:18:45;25.90;99.90
42663;DHT22;44330;51.360;6.686;2023-07-29T12:21:11;25.60;99.90
42663;DHT22;44330;51.360;6.686;2023-07-29T12:23:39;25.40;1.00
42663;DHT22;44330;51.360;6.686;2023-07-29T12:26:04;25.50;69.20
42663;DHT22;44330;51.360;6.686;2023-07-29T12:28:30;25.70;1.00
42663;DHT22;44330;51.360;6.686;2023-07-29T12:30:56;26.10;99.90
42663;DHT22;44330;51.360;6.686;2023-07-29T12:33:40;26.50;99.90
42663;DHT22;44330;51.360;6.686;2023-07-29T12:36:07;26.90;99.90
42663;DHT22;44330;51.360;6.686;2023-07-29T12:38:33;27.20;99.90
42663;DHT22;44330;51.360;6.686;2023-07-29T12:40:59;27.20;99.90
42663;DHT22;44330;51.360;6.686;2023-07-29T12:43:25;27.20;99.90
42663;DHT22;44330;51.360;6.686;2023-07-29T12:45:51;27.10;99.90
42663;DHT22;44330;51.360;6.686;2023-07-29T12:48:17;26.90;99.90
42663;DHT22;44330;51.360;6.686;2023-07-29T12:50:42;26.60;99.90
42663;DHT22;44330;51.360;6.686;2023-07-29T12:53:09;26.50;99.90
42663;DHT22;44330;51.360;6.686;2023-07-29T12:55:38;26.50;5.00
42663;DHT22;44330;51.360;6.686;2023-07-29T12:58:04;26.70;99.90
42663;DHT22;44330;51.360;6.686;2023-07-29T13:00:30;27.00;47.90
42663;DHT22;44330;51.360;6.686;2023-07-29T13:02:56;27.20;99.90
42663;DHT22;44330;51.360;6.686;2023-07-29T13:05:21;27.30;99.90
42663;DHT22;44330;51.360;6.686;2023-07-29T13:07:47;27.10;99.90
42663;DHT22;44330;51.360;6.686;2023-07-29T13:10:13;27.00;99.90
42663;DHT22;44330;51.360;6.686;2023-07-29T13:12:40;26.90;99.90
42663;DHT22;44330;51.360;6.686;2023-07-29T13:15:06;26.80;99.90
42663;DHT22;44330;51.360;6.686;2023-07-29T13:17:32;26.70;99.90
42663;DHT22;44330;51.360;6.686;2023-07-29T13:19:58;26.50;1.00
42663;DHT22;44330;51.360;6.686;2023-07-29T13:22:23;26.30;99.90
42663;DHT22;44330;51.360;6.686;2023-07-29T13:24:49;26.00;99.90
42663;DHT22;44330;51.360;6.686;2023-07-29T13:27:14;25.80;9.20
42663;DHT22;44330;51.360;6.686;2023-07-29T13:29:40;25.70;99.90
42663;DHT22;44330;51.360;6.686;2023-07-29T13:32:07;25.40;99.90
42663;DHT22;44330;51.360;6.686;2023-07-29T13:34:33;25.20;1.00
42663;DHT22;44330;51.360;6.686;2023-07-29T13:37:00;24.90;99.90
42663;DHT22;44330;51.360;6.686;2023-07-29T13:39:26;24.60;99.90
42663;DHT22;44330;51.360;6.686;2023-07-29T13:41:55;24.40;99.90
42663;DHT22;44330;51.360;6.686;2023-07-29T13:44:23;24.20;99.90
42663;DHT22;44330;51.360;6.686;2023-07-29T13:46:49;24.00;1.00
42663;DHT22;44330;51.360;6.686;2023-07-29T13:49:14;23.70;1.00
42663;DHT22;44330;51.360;6.686;2023-07-29T13:51:49;23.50;1.00
42663;DHT22;44330;51.360;6.686;2023-07-29T13:54:15;23.30;3.10
42663;DHT22;44330;51.360;6.686;2023-07-29T13:56:40;23.20;6.80
42663;DHT22;44330;51.360;6.686;2023-07-29T13:59:06;23.20;12.10
42663;DHT22;44330;51.360;6.686;2023-07-29T14:01:34;23.10;5.80
42663;DHT22;44330;51.360;6.686;2023-07-29T14:03:59;23.00;14.10
42663;DHT22;44330;51.360;6.686;2023-07-29T14:06:25;22.90;15.00
42663;DHT22;44330;51.360;6.686;2023-07-29T14:08:51;22.90;27.60
42663;DHT22;44330;51.360;6.686;2023-07-29T14:11:29;22.90;23.40
42663;DHT22;44330;51.360;6.686;2023-07-29T14:13:58;23.10;25.50
42663;DHT22;44330;51.360;6.686;2023-07-29T14:16:23;23.60;19.00
42663;DHT22;44330;51.360;6.686;2023-07-29T14:18:49;23.90;1.00
42663;DHT22;44330;51.360;6.686;2023-07-29T14:21:14;24.30;8.40
42663;DHT22;44330;51.360;6.686;2023-07-29T14:23:40;24.60;1.00
42663;DHT22;44330;51.360;6.686;2023-07-29T14:26:07;24.80;1.00
42663;DHT22;44330;51.360;6.686;2023-07-29T14:28:35;24.60;1.00
42663;DHT22;44330;51.360;6.686;2023-07-29T14:31:01;24.30;1.00
42663;DHT22;44330;51.360;6.686;2023-07-29T14:33:26;24.30;1.00
42663;DHT22;44330;51.360;6.686;2023-07-29T14:35:53;24.10;99.90
42663;DHT22;44330;51.360;6.686;2023-07-29T14:38:18;23.90;99.90
42663;DHT22;44330;51.360;6.686;2023-07-29T14:40:47;23.60;99.90
42663;DHT22;44330;51.360;6.686;2023-07-29T14:43:12;23.50;1.00
42663;DHT22;44330;51.360;6.686;2023-07-29T14:45:38;23.30;1.00
42663;DHT22;44330;51.360;6.686;2023-07-29T14:48:04;23.20;1.00
42663;DHT22;44330;51.360;6.686;2023-07-29T14:50:30;23.10;1.00
42663;DHT22;44330;51.360;6.686;2023-07-29T14:52:55;23.00;1.00
42663;DHT22;44330;51.360;6.686;2023-07-29T14:55:21;22.90;1.00
42663;DHT22;44330;51.360;6.686;2023-07-29T14:57:46;22.70;7.20
42663;DHT22;44330;51.360;6.686;2023-07-29T15:00:12;22.80;14.30
42663;DHT22;44330;51.360;6.686;2023-07-29T15:02:38;22.70;18.90
42663;DHT22;44330;51.360;6.686;2023-07-29T15:05:05;22.60;21.30
42663;DHT22;44330;51.360;6.686;2023-07-29T15:07:30;22.50;14.30
42663;DHT22;44330;51.360;6.686;2023-07-29T15:09:56;22.40;28.10
42663;DHT22;44330;51.360;6.686;2023-07-29T15:12:21;22.20;31.10
42663;DHT22;44330;51.360;6.686;2023-07-29T15:14:47;22.20;35.20
42663;DHT22;44330;51.360;6.686;2023-07-29T15:17:13;22.10;46.70
42663;DHT22;44330;51.360;6.686;2023-07-29T15:19:39;22.30;46.70
42663;DHT22;44330;51.360;6.686;2023-07-29T15:22:04;22.30;41.90
42663;DHT22;44330;51.360;6.686;2023-07-29T15:24:30;22.60;43.00
42663;DHT22;44330;51.360;6.686;2023-07-29T15:26:56;22.80;27.30
42663;DHT22;44330;51.360;6.686;2023-07-29T15:29:21;22.90;26.60
42663;DHT22;44330;51.360;6.686;2023-07-29T15:31:47;23.30;1.00
42663;DHT22;44330;51.360;6.686;2023-07-29T15:34:13;23.30;6.30
42663;DHT22;44330;51.360;6.686;2023-07-29T15:36:38;23.50;5.60
42663;DHT22;44330;51.360;6.686;2023-07-29T15:39:04;23.60;6.20
42663;DHT22;44330;51.360;6.686;2023-07-29T15:41:32;23.60;1.00
42663;DHT22;44330;51.360;6.686;2023-07-29T15:43:59;23.80;1.00